sensor_id;sensor_type;location;lat;lon;timestamp;pressure;altitude;pressure_sealevel;temperature;humidity
3668;BME280;24099;47.102;15.440;2023-02-18T00:00:44;97612.44;;;3.27;100.00
3668;BME280;24099;47.102;15.440;2023-02-18T00:03:12;97599.22;;;3.40;100.00
3668;BME280;24099;47.102;15.440;2023-02-18T00:05:39;97603.31;;;3.33;100.00
3668;BME280;24099;47.102;15.440;2023-02-18T00:08:08;97589.84;;;3.49;100.00
3668;BME280;24099;47.102;15.440;2023-02-18T00:10:36;97598.09;;;3.54;100.00
3668;BME280;24099;47.102;15.440;2023-02-18T00:13:04;97590.75;;;3.59;100.00
3668;BME280;24099;47.102;15.440;2023-02-18T00:15:34;97594.44;;;3.35;100.00
3668;BME280;24099;47.102;15.440;2023-02-18T00:18:02;97603.19;;;3.34;100.00
3668;BME280;24099;47.102;15.440;2023-02-18T00:20:30;97603.22;;;3.44;100.00
3668;BME280;24099;47.102;15.440;2023-02-18T00:22:58;97607.81;;;3.31;100.00
3668;BME280;24099;47.102;15.440;2023-02-18T00:25:27;97607.34;;;3.26;100.00
3668;BME280;24099;47.102;15.440;2023-02-18T00:27:55;97612.06;;;3.53;100.00
3668;BME280;24099;47.102;15.440;2023-02-18T00:30:23;97626.56;;;3.14;100.00
3668;BME280;24099;47.102;15.440;2023-02-18T00:32:51;97624.78;;;3.14;100.00
3668;BME280;24099;47.102;15.440;2023-02-18T00:35:18;97616.31;;;3.33;100.00
3668;BME280;24099;47.102;15.440;2023-02-18T00:37:46;97618.28;;;3.20;100.00
3668;BME280;24099;47.102;15.440;2023-02-18T00:40:13;97635.63;;;2.98;100.00
3668;BME280;24099;47.102;15.440;2023-02-18T00:42:45;97634.50;;;3.12;100.00
3668;BME280;24099;47.102;15.440;2023-02-18T00:45:14;97635.22;;;3.03;100.00
3668;BME280;24099;47.102;15.440;2023-02-18T00:47:42;97634.94;;;3.17;100.00
3668;BME280;24099;47.102;15.440;2023-02-18T00:50:10;97629.72;;;2.96;100.00
3668;BME280;24099;47.102;15.440;2023-02-18T00:52:38;97644.91;;;3.12;100.00
3668;BME280;24099;47.102;15.440;2023-02-18T00:55:07;97633.38;;;3.46;100.00
3668;BME280;24099;47.102;15.440;2023-02-18T00:57:34;97629.69;;;3.28;100.00
3668;BME280;24099;47.102;15.440;2023-02-18T01:00:04;97632.06;;;3.20;100.00
3668;BME280;24099;47.102;15.440;2023-02-18T01:02:33;97630.19;;;3.22;100.00
3668;BME280;24099;47.102;15.440;2023-02-18T01:05:02;97621.13;;;3.17;100.00
3668;BME280;24099;47.102;15.440;2023-02-18T01:07:30;97619.28;;;3.28;100.00
3668;BME280;24099;47.102;15.440;2023-02-18T01:09:59;97616.75;;;3.17;100.00
3668;BME280;24099;47.102;15.440;2023-02-18T01:12:27;97624.69;;;3.04;100.00
3668;BME280;24099;47.102;15.440;2023-02-18T01:14:55;97621.66;;;3.20;100.00
3668;BME280;24099;47.102;15.440;2023-02-18T01:17:24;97623.69;;;2.96;100.00
3668;BME280;24099;47.102;15.440;2023-02-18T01:19:51;97625.34;;;2.97;100.00
3668;BME280;24099;47.102;15.440;2023-02-18T01:22:19;97619.03;;;3.31;100.00
3668;BME280;24099;47.102;15.440;2023-02-18T01:24:50;97620.19;;;3.06;100.00
3668;BME280;24099;47.102;15.440;2023-02-18T01:27:18;97632.19;;;2.98;100.00
3668;BME280;24099;47.102;15.440;2023-02-18T01:29:46;97630.88;;;3.24;100.00
3668;BME280;24099;47.102;15.440;2023-02-18T01:32:14;97636.72;;;3.17;100.00
3668;BME280;24099;47.102;15.440;2023-02-18T01:34:43;97637.13;;;3.01;100.00
3668;BME280;24099;47.102;15.440;2023-02-18T01:37:11;97637.00;;;3.02;100.00
3668;BME280;24099;47.102;15.440;2023-02-18T01:39:38;97638.03;;;3.11;100.00
3668;BME280;24099;47.102;15.440;2023-02-18T01:42:11;97626.44;;;3.15;100.00
3668;BME280;24099;47.102;15.440;2023-02-18T01:44:45;97629.16;;;3.14;100.00
3668;BME280;24099;47.102;15.440;2023-02-18T01:47:13;97620.84;;;2.99;100.00
3668;BME280;24099;47.102;15.440;2023-02-18T01:49:45;97615.75;;;2.97;100.00
3668;BME280;24099;47.102;15.440;2023-02-18T01:52:15;97617.97;;;3.02;100.00
3668;BME280;24099;47.102;15.440;2023-02-18T01:54:48;97619.28;;;3.28;100.00
3668;BME280;24099;47.102;15.440;2023-02-18T01:57:20;97613.59;;;3.02;100.00
3668;BME280;24099;47.102;15.440;2023-02-18T01:59:52;97607.44;;;3.03;100.00
3668;BME280;24099;47.102;15.440;2023-02-18T02:02:23;97610.97;;;3.14;100.00
3668;BME280;24099;47.102;15.440;2023-02-18T02:04:52;97604.94;;;3.13;100.00
3668;BME280;24099;47.102;15.440;2023-02-18T02:07:22;97605.41;;;3.18;100.00
3668;BME280;24099;47.102;15.440;2023-02-18T02:09:56;97617.44;;;3.19;100.00
3668;BME280;24099;47.102;15.440;2023-02-18T02:12:42;97600.88;;;3.20;100.00
3668;BME280;24099;47.102;15.440;2023-02-18T02:15:21;97609.06;;;3.16;100.00
3668;BME280;24099;47.102;15.440;2023-02-18T02:18:14;97615.16;;;3.26;100.00
3668;BME280;24099;47.102;15.440;2023-02-18T02:21:07;97585.34;;;3.30;100.00
3668;BME280;24099;47.102;15.440;2023-02-18T02:24:02;97590.66;;;3.07;100.00
3668;BME280;24099;47.102;15.440;2023-02-18T02:30:13;97587.56;;;3.34;100.00
3668;BME280;24099;47.102;15.440;2023-02-18T02:33:23;97587.44;;;3.15;100.00
3668;BME280;24099;47.102;15.440;2023-02-18T02:36:04;97581.22;;;3.27;100.00
3668;BME280;24099;47.102;15.440;2023-02-18T02:38:39;97586.91;;;3.21;100.00
3668;BME280;24099;47.102;15.440;2023-02-18T02:41:20;97568.28;;;3.37;100.00
3668;BME280;24099;47.102;15.440;2023-02-18T02:43:55;97573.16;;;3.09;100.00
3668;BME280;24099;47.102;15.440;2023-02-18T02:46:29;97571.50;;;3.50;100.00
3668;BME280;24099;47.102;15.440;2023-02-18T02:49:10;97561.84;;;3.41;100.00
3668;BME280;24099;47.102;15.440;2023-02-18T02:51:47;97572.72;;;3.25;100.00
3668;BME280;24099;47.102;15.440;2023-02-18T02:54:18;97569.03;;;3.49;100.00
3668;BME280;24099;47.102;15.440;2023-02-18T02:56:47;97558.59;;;3.39;100.00
3668;BME280;24099;47.102;15.440;2023-02-18T02:59:23;97557.81;;;3.27;100.00
3668;BME280;24099;47.102;15.440;2023-02-18T03:02:04;97561.59;;;3.23;100.00
3668;BME280;24099;47.102;15.440;2023-02-18T03:04:49;97561.03;;;2.99;100.00
3668;BME280;24099;47.102;15.440;2023-02-18T03:07:46;97566.88;;;3.33;100.00
3668;BME280;24099;47.102;15.440;2023-02-18T03:10:31;97563.91;;;3.17;100.00
3668;BME280;24099;47.102;15.440;2023-02-18T03:13:09;97551.47;;;2.99;100.00
3668;BME280;24099;47.102;15.440;2023-02-18T03:15:48;97561.59;;;3.02;100.00
3668;BME280;24099;47.102;15.440;2023-02-18T03:18:22;97570.47;;;3.41;100.00
3668;BME280;24099;47.102;15.440;2023-02-18T03:20:53;97558.63;;;3.28;100.00
3668;BME280;24099;47.102;15.440;2023-02-18T03:23:27;97553.31;;;3.29;100.00
3668;BME280;24099;47.102;15.440;2023-02-18T03:25:58;97569.38;;;3.34;100.00
3668;BME280;24099;47.102;15.440;2023-02-18T03:28:29;97560.22;;;3.91;100.00
3668;BME280;24099;47.102;15.440;2023-02-18T03:30:59;97559.59;;;3.47;100.00
3668;BME280;24099;47.102;15.440;2023-02-18T03:33:34;97562.06;;;3.49;100.00
3668;BME280;24099;47.102;15.440;2023-02-18T03:36:04;97569.53;;;3.42;100.00
3668;BME280;24099;47.102;15.440;2023-02-18T03:38:37;97561.59;;;3.44;100.00
3668;BME280;24099;47.102;15.440;2023-02-18T03:41:10;97564.09;;;3.45;100.00
3668;BME280;24099;47.102;15.440;2023-02-18T03:43:40;97556.16;;;3.47;100.00
3668;BME280;24099;47.102;15.440;2023-02-18T03:46:07;97573.03;;;3.53;100.00
3668;BME280;24099;47.102;15.440;2023-02-18T03:48:35;97579.88;;;3.74;100.00
3668;BME280;24099;47.102;15.440;2023-02-18T03:51:03;97582.63;;;3.83;100.00
3668;BME280;24099;47.102;15.440;2023-02-18T03:53:31;97582.75;;;3.81;100.00
3668;BME280;24099;47.102;15.440;2023-02-18T03:55:59;97578.94;;;3.85;100.00
3668;BME280;24099;47.102;15.440;2023-02-18T03:58:27;97582.13;;;3.89;100.00
3668;BME280;24099;47.102;15.440;2023-02-18T04:00:58;97574.31;;;3.89;100.00
3668;BME280;24099;47.102;15.440;2023-02-18T04:03:26;97576.91;;;3.89;100.00
3668;BME280;24099;47.102;15.440;2023-02-18T04:05:53;97570.44;;;4.13;100.00
3668;BME280;24099;47.102;15.440;2023-02-18T04:08:21;97573.34;;;3.90;100.00
3668;BME280;24099;47.102;15.440;2023-02-18T04:10:49;97574.44;;;3.87;100.00
3668;BME280;24099;47.102;15.440;2023-02-18T04:13:18;97570.06;;;3.88;100.00
3668;BME280;24099;47.102;15.440;2023-02-18T04:15:49;97588.16;;;3.89;100.00
3668;BME280;24099;47.102;15.440;2023-02-18T04:18:17;97586.19;;;4.12;100.00
3668;BME280;24099;47.102;15.440;2023-02-18T04:20:47;97575.97;;;4.30;100.00
3668;BME280;24099;47.102;15.440;2023-02-18T04:23:16;97578.78;;;4.07;100.00
3668;BME280;24099;47.102;15.440;2023-02-18T04:25:44;97572.72;;;3.97;100.00
3668;BME280;24099;47.102;15.440;2023-02-18T04:28:13;97571.41;;;4.12;100.00
3668;BME280;24099;47.102;15.440;2023-02-18T04:30:43;97579.16;;;4.03;100.00
3668;BME280;24099;47.102;15.440;2023-02-18T04:33:11;97571.06;;;3.96;100.00
3668;BME280;24099;47.102;15.440;2023-02-18T04:35:39;97578.63;;;3.99;100.00
3668;BME280;24099;47.102;15.440;2023-02-18T04:38:07;97578.09;;;4.05;100.00
3668;BME280;24099;47.102;15.440;2023-02-18T04:40:35;97575.72;;;3.93;100.00
3668;BME280;24099;47.102;15.440;2023-02-18T04:43:03;97584.22;;;3.95;100.00
3668;BME280;24099;47.102;15.440;2023-02-18T04:45:34;97594.22;;;4.30;100.00
3668;BME280;24099;47.102;15.440;2023-02-18T04:48:03;97579.53;;;4.19;100.00
3668;BME280;24099;47.102;15.440;2023-02-18T04:50:31;97575.66;;;4.13;100.00
3668;BME280;24099;47.102;15.440;2023-02-18T04:52:59;97584.00;;;4.07;100.00
3668;BME280;24099;47.102;15.440;2023-02-18T04:55:27;97576.59;;;4.12;100.00
3668;BME280;24099;47.102;15.440;2023-02-18T04:57:54;97571.47;;;4.01;100.00
3668;BME280;24099;47.102;15.440;2023-02-18T05:00:22;97568.50;;;4.06;100.00
3668;BME280;24099;47.102;15.440;2023-02-18T05:02:50;97572.44;;;4.00;100.00
3668;BME280;24099;47.102;15.440;2023-02-18T05:05:19;97570.41;;;4.04;100.00
3668;BME280;24099;47.102;15.440;2023-02-18T05:07:46;97580.06;;;4.23;100.00
3668;BME280;24099;47.102;15.440;2023-02-18T05:10:16;97569.81;;;4.00;100.00
3668;BME280;24099;47.102;15.440;2023-02-18T05:12:44;97581.63;;;4.04;100.00
3668;BME280;24099;47.102;15.440;2023-02-18T05:15:12;97575.59;;;4.04;100.00
3668;BME280;24099;47.102;15.440;2023-02-18T05:17:40;97585.31;;;4.02;100.00
3668;BME280;24099;47.102;15.440;2023-02-18T05:20:08;97578.19;;;3.94;100.00
3668;BME280;24099;47.102;15.440;2023-02-18T05:22:37;97580.22;;;3.91;100.00
3668;BME280;24099;47.102;15.440;2023-02-18T05:25:06;97568.66;;;3.84;100.00
3668;BME280;24099;47.102;15.440;2023-02-18T05:27:34;97585.44;;;3.91;100.00
3668;BME280;24099;47.102;15.440;2023-02-18T05:30:02;97582.19;;;3.98;100.00
3668;BME280;24099;47.102;15.440;2023-02-18T05:32:33;97583.59;;;3.81;100.00
3668;BME280;24099;47.102;15.440;2023-02-18T05:35:00;97580.06;;;4.23;100.00
3668;BME280;24099;47.102;15.440;2023-02-18T05:37:28;97577.81;;;4.08;100.00
3668;BME280;24099;47.102;15.440;2023-02-18T05:39:58;97580.81;;;4.04;100.00
3668;BME280;24099;47.102;15.440;2023-02-18T05:42:27;97582.06;;;4.09;100.00
3668;BME280;24099;47.102;15.440;2023-02-18T05:44:58;97581.69;;;4.14;100.00
3668;BME280;24099;47.102;15.440;2023-02-18T05:47:27;97584.59;;;3.90;100.00
3668;BME280;24099;47.102;15.440;2023-02-18T05:49:54;97589.31;;;4.06;100.00
3668;BME280;24099;47.102;15.440;2023-02-18T05:52:24;97589.56;;;3.93;100.00
3668;BME280;24099;47.102;15.440;2023-02-18T05:54:54;97596.44;;;4.04;100.00
3668;BME280;24099;47.102;15.440;2023-02-18T05:57:25;97594.94;;;3.80;100.00
3668;BME280;24099;47.102;15.440;2023-02-18T05:59:53;97594.44;;;3.87;100.00
3668;BME280;24099;47.102;15.440;2023-02-18T06:02:23;97595.28;;;4.18;100.00
3668;BME280;24099;47.102;15.440;2023-02-18T06:04:50;97599.09;;;3.83;100.00
3668;BME280;24099;47.102;15.440;2023-02-18T06:07:21;97599.56;;;3.67;100.00
3668;BME280;24099;47.102;15.440;2023-02-18T06:09:49;97613.41;;;3.47;100.00
3668;BME280;24099;47.102;15.440;2023-02-18T06:12:24;97605.91;;;3.74;100.00
3668;BME280;24099;47.102;15.440;2023-02-18T06:14:52;97604.81;;;3.77;100.00
3668;BME280;24099;47.102;15.440;2023-02-18T06:17:22;97607.69;;;3.53;100.00
3668;BME280;24099;47.102;15.440;2023-02-18T06:19:49;97617.19;;;3.43;100.00
3668;BME280;24099;47.102;15.440;2023-02-18T06:22:19;97610.44;;;3.82;100.00
3668;BME280;24099;47.102;15.440;2023-02-18T06:24:47;97613.19;;;3.60;100.00
3668;BME280;24099;47.102;15.440;2023-02-18T06:27:16;97628.31;;;3.45;100.00
3668;BME280;24099;47.102;15.440;2023-02-18T06:29:46;97616.25;;;3.65;100.00
3668;BME280;24099;47.102;15.440;2023-02-18T06:32:15;97618.09;;;3.53;100.00
3668;BME280;24099;47.102;15.440;2023-02-18T06:34:43;97634.09;;;3.49;100.00
3668;BME280;24099;47.102;15.440;2023-02-18T06:37:10;97627.94;;;3.70;100.00
3668;BME280;24099;47.102;15.440;2023-02-18T06:39:38;97633.84;;;3.52;100.00
3668;BME280;24099;47.102;15.440;2023-02-18T06:42:07;97624.75;;;3.46;100.00
3668;BME280;24099;47.102;15.440;2023-02-18T06:44:35;97629.63;;;3.60;100.00
3668;BME280;24099;47.102;15.440;2023-02-18T06:47:07;97631.72;;;3.45;100.00
3668;BME280;24099;47.102;15.440;2023-02-18T06:49:35;97629.91;;;3.57;100.00
3668;BME280;24099;47.102;15.440;2023-02-18T06:52:04;97624.25;;;3.52;100.00
3668;BME280;24099;47.102;15.440;2023-02-18T06:54:33;97619.53;;;3.46;100.00
3668;BME280;24099;47.102;15.440;2023-02-18T06:57:01;97621.69;;;3.41;100.00
3668;BME280;24099;47.102;15.440;2023-02-18T06:59:31;97631.41;;;3.60;100.00
3668;BME280;24099;47.102;15.440;2023-02-18T07:01:59;97629.59;;;4.02;100.00
3668;BME280;24099;47.102;15.440;2023-02-18T07:04:30;97637.31;;;3.83;100.00
3668;BME280;24099;47.102;15.440;2023-02-18T07:06:58;97631.34;;;3.71;100.00
3668;BME280;24099;47.102;15.440;2023-02-18T07:09:28;97630.59;;;4.10;100.00
3668;BME280;24099;47.102;15.440;2023-02-18T07:11:56;97626.75;;;3.84;100.00
3668;BME280;24099;47.102;15.440;2023-02-18T07:14:26;97622.25;;;3.86;100.00
3668;BME280;24099;47.102;15.440;2023-02-18T07:16:54;97626.38;;;3.89;100.00
3668;BME280;24099;47.102;15.440;2023-02-18T07:19:24;97635.84;;;3.90;100.00
3668;BME280;24099;47.102;15.440;2023-02-18T07:21:53;97634.06;;;3.90;100.00
3668;BME280;24099;47.102;15.440;2023-02-18T07:24:24;97634.38;;;3.97;100.00
3668;BME280;24099;47.102;15.440;2023-02-18T07:26:52;97640.69;;;3.94;100.00
3668;BME280;24099;47.102;15.440;2023-02-18T07:29:22;97642.88;;;4.20;100.00
3668;BME280;24099;47.102;15.440;2023-02-18T07:31:49;97636.53;;;4.12;100.00
3668;BME280;24099;47.102;15.440;2023-02-18T07:34:17;97649.28;;;4.15;100.00
3668;BME280;24099;47.102;15.440;2023-02-18T07:36:46;97659.94;;;4.83;100.00
3668;BME280;24099;47.102;15.440;2023-02-18T07:39:17;97643.66;;;4.60;100.00
3668;BME280;24099;47.102;15.440;2023-02-18T07:41:52;97643.84;;;4.68;100.00
3668;BME280;24099;47.102;15.440;2023-02-18T07:44:25;97664.66;;;4.99;100.00
3668;BME280;24099;47.102;15.440;2023-02-18T07:46:56;97648.56;;;5.03;100.00
3668;BME280;24099;47.102;15.440;2023-02-18T07:49:27;97650.91;;;4.97;100.00
3668;BME280;24099;47.102;15.440;2023-02-18T07:52:07;97657.63;;;4.90;100.00
3668;BME280;24099;47.102;15.440;2023-02-18T07:54:38;97643.09;;;5.16;100.00
3668;BME280;24099;47.102;15.440;2023-02-18T07:57:06;97644.59;;;4.99;100.00
3668;BME280;24099;47.102;15.440;2023-02-18T07:59:35;97645.81;;;5.05;100.00
3668;BME280;24099;47.102;15.440;2023-02-18T08:02:04;97641.19;;;5.18;100.00
3668;BME280;24099;47.102;15.440;2023-02-18T08:04:32;97652.44;;;5.28;100.00
3668;BME280;24099;47.102;15.440;2023-02-18T08:07:01;97660.28;;;5.28;100.00
3668;BME280;24099;47.102;15.440;2023-02-18T08:09:29;97653.81;;;5.32;100.00
3668;BME280;24099;47.102;15.440;2023-02-18T08:11:57;97649.53;;;5.41;100.00
3668;BME280;24099;47.102;15.440;2023-02-18T08:16:17;97653.78;;;5.61;100.00
3668;BME280;24099;47.102;15.440;2023-02-18T08:18:46;97647.19;;;5.76;100.00
3668;BME280;24099;47.102;15.440;2023-02-18T08:21:18;97645.56;;;5.75;100.00
3668;BME280;24099;47.102;15.440;2023-02-18T08:23:47;97646.19;;;5.87;100.00
3668;BME280;24099;47.102;15.440;2023-02-18T08:26:18;97642.06;;;5.84;100.00
3668;BME280;24099;47.102;15.440;2023-02-18T08:28:46;97636.59;;;5.97;100.00
3668;BME280;24099;47.102;15.440;2023-02-18T08:31:19;97638.22;;;6.08;100.00
3668;BME280;24099;47.102;15.440;2023-02-18T08:33:47;97628.72;;;6.16;100.00
3668;BME280;24099;47.102;15.440;2023-02-18T08:36:15;97633.94;;;6.16;100.00
3668;BME280;24099;47.102;15.440;2023-02-18T08:38:43;97633.41;;;6.40;100.00
3668;BME280;24099;47.102;15.440;2023-02-18T08:41:11;97629.44;;;6.91;100.00
3668;BME280;24099;47.102;15.440;2023-02-18T08:43:41;97619.56;;;7.20;100.00
3668;BME280;24099;47.102;15.440;2023-02-18T08:46:09;97603.19;;;7.36;100.00
3668;BME280;24099;47.102;15.440;2023-02-18T08:48:38;97598.47;;;7.22;100.00
3668;BME280;24099;47.102;15.440;2023-02-18T08:51:13;97601.03;;;7.32;100.00
3668;BME280;24099;47.102;15.440;2023-02-18T08:53:45;97604.69;;;7.21;100.00
3668;BME280;24099;47.102;15.440;2023-02-18T08:56:20;97602.56;;;7.42;100.00
3668;BME280;24099;47.102;15.440;2023-02-18T08:58:48;97599.34;;;7.48;100.00
3668;BME280;24099;47.102;15.440;2023-02-18T09:01:17;97599.28;;;7.40;100.00
3668;BME280;24099;47.102;15.440;2023-02-18T09:03:48;97599.91;;;7.34;100.00
3668;BME280;24099;47.102;15.440;2023-02-18T09:06:17;97601.16;;;7.48;100.00
3668;BME280;24099;47.102;15.440;2023-02-18T09:08:45;97588.81;;;7.58;100.00
3668;BME280;24099;47.102;15.440;2023-02-18T09:11:14;97582.22;;;7.80;100.00
3668;BME280;24099;47.102;15.440;2023-02-18T09:13:41;97578.47;;;7.82;100.00
3668;BME280;24099;47.102;15.440;2023-02-18T09:16:12;97571.31;;;7.67;100.00
3668;BME280;24099;47.102;15.440;2023-02-18T09:18:41;97572.00;;;7.69;100.00
3668;BME280;24099;47.102;15.440;2023-02-18T09:21:11;97582.28;;;7.88;100.00
3668;BME280;24099;47.102;15.440;2023-02-18T09:23:44;97582.06;;;8.07;100.00
3668;BME280;24099;47.102;15.440;2023-02-18T09:26:14;97569.44;;;8.37;100.00
3668;BME280;24099;47.102;15.440;2023-02-18T09:28:42;97566.59;;;8.72;100.00
3668;BME280;24099;47.102;15.440;2023-02-18T09:31:13;97568.00;;;9.17;100.00
3668;BME280;24099;47.102;15.440;2023-02-18T09:33:45;97555.41;;;10.00;100.00
3668;BME280;24099;47.102;15.440;2023-02-18T09:36:15;97546.50;;;10.17;100.00
3668;BME280;24099;47.102;15.440;2023-02-18T09:38:43;97547.97;;;10.28;100.00
3668;BME280;24099;47.102;15.440;2023-02-18T09:41:20;97543.72;;;10.58;100.00
3668;BME280;24099;47.102;15.440;2023-02-18T09:43:52;97543.22;;;10.85;100.00
3668;BME280;24099;47.102;15.440;2023-02-18T09:46:23;97535.00;;;11.49;100.00
3668;BME280;24099;47.102;15.440;2023-02-18T09:48:53;97523.06;;;11.76;100.00
3668;BME280;24099;47.102;15.440;2023-02-18T09:51:23;97508.88;;;12.06;100.00
3668;BME280;24099;47.102;15.440;2023-02-18T09:53:51;97515.72;;;12.15;100.00
3668;BME280;24099;47.102;15.440;2023-02-18T09:56:25;97514.78;;;12.37;100.00
3668;BME280;24099;47.102;15.440;2023-02-18T09:58:54;97503.88;;;12.62;100.00
3668;BME280;24099;47.102;15.440;2023-02-18T10:01:31;97503.97;;;12.90;100.00
3668;BME280;24099;47.102;15.440;2023-02-18T10:04:04;97501.28;;;13.26;100.00
3668;BME280;24099;47.102;15.440;2023-02-18T10:06:36;97497.09;;;13.94;100.00
3668;BME280;24099;47.102;15.440;2023-02-18T10:09:11;97493.84;;;13.64;100.00
3668;BME280;24099;47.102;15.440;2023-02-18T10:11:42;97488.19;;;13.67;100.00
3668;BME280;24099;47.102;15.440;2023-02-18T10:14:13;97481.03;;;13.95;100.00
3668;BME280;24099;47.102;15.440;2023-02-18T10:16:43;97477.81;;;14.06;100.00
3668;BME280;24099;47.102;15.440;2023-02-18T10:19:22;97455.94;;;14.39;100.00
3668;BME280;24099;47.102;15.440;2023-02-18T10:21:55;97467.16;;;14.95;100.00
3668;BME280;24099;47.102;15.440;2023-02-18T10:24:30;97466.75;;;15.25;93.47
3668;BME280;24099;47.102;15.440;2023-02-18T10:27:01;97461.00;;;15.01;92.30
3668;BME280;24099;47.102;15.440;2023-02-18T10:29:31;97460.63;;;15.31;88.82
3668;BME280;24099;47.102;15.440;2023-02-18T10:32:09;97459.19;;;15.48;88.97
3668;BME280;24099;47.102;15.440;2023-02-18T10:34:47;97446.75;;;15.68;87.38
3668;BME280;24099;47.102;15.440;2023-02-18T10:37:35;97444.28;;;15.60;85.43
3668;BME280;24099;47.102;15.440;2023-02-18T10:40:12;97439.97;;;15.79;85.41
3668;BME280;24099;47.102;15.440;2023-02-18T10:42:53;97437.44;;;16.04;84.87
3668;BME280;24099;47.102;15.440;2023-02-18T10:45:32;97435.31;;;16.32;83.26
3668;BME280;24099;47.102;15.440;2023-02-18T10:48:32;97429.88;;;16.52;80.54
3668;BME280;24099;47.102;15.440;2023-02-18T10:51:13;97423.47;;;16.73;78.43
3668;BME280;24099;47.102;15.440;2023-02-18T10:53:45;97418.59;;;16.95;79.08
3668;BME280;24099;47.102;15.440;2023-02-18T10:56:33;97412.09;;;17.15;75.36
3668;BME280;24099;47.102;15.440;2023-02-18T10:59:08;97403.75;;;17.55;75.67
3668;BME280;24099;47.102;15.440;2023-02-18T11:01:36;97407.31;;;17.67;75.23
3668;BME280;24099;47.102;15.440;2023-02-18T11:04:11;97409.94;;;17.92;72.83
3668;BME280;24099;47.102;15.440;2023-02-18T11:06:41;97395.16;;;17.78;71.80
3668;BME280;24099;47.102;15.440;2023-02-18T11:09:27;97393.53;;;18.25;70.05
3668;BME280;24099;47.102;15.440;2023-02-18T11:12:05;97379.66;;;17.86;70.91
3668;BME280;24099;47.102;15.440;2023-02-18T11:14:39;97379.94;;;18.15;69.26
3668;BME280;24099;47.102;15.440;2023-02-18T11:17:14;97371.47;;;18.36;67.57
3668;BME280;24099;47.102;15.440;2023-02-18T11:19:52;97364.06;;;18.20;68.41
3668;BME280;24099;47.102;15.440;2023-02-18T11:22:22;97356.56;;;18.17;68.66
3668;BME280;24099;47.102;15.440;2023-02-18T11:24:56;97349.72;;;18.21;66.79
3668;BME280;24099;47.102;15.440;2023-02-18T11:27:30;97355.16;;;18.14;67.12
3668;BME280;24099;47.102;15.440;2023-02-18T11:30:02;97344.00;;;17.51;67.06
3668;BME280;24099;47.102;15.440;2023-02-18T11:32:33;97326.00;;;18.01;66.88
3668;BME280;24099;47.102;15.440;2023-02-18T11:35:03;97325.50;;;18.22;66.18
3668;BME280;24099;47.102;15.440;2023-02-18T11:37:32;97309.81;;;18.44;65.95
3668;BME280;24099;47.102;15.440;2023-02-18T11:40:04;97296.38;;;17.43;64.61
3668;BME280;24099;47.102;15.440;2023-02-18T11:42:33;97310.16;;;18.06;65.57
3668;BME280;24099;47.102;15.440;2023-02-18T11:45:26;97309.09;;;17.96;63.81
3668;BME280;24099;47.102;15.440;2023-02-18T11:48:00;97312.09;;;17.69;64.83
3668;BME280;24099;47.102;15.440;2023-02-18T11:50:31;97301.81;;;18.03;64.37
3668;BME280;24099;47.102;15.440;2023-02-18T11:52:59;97298.34;;;18.02;66.75
3668;BME280;24099;47.102;15.440;2023-02-18T11:55:29;97284.25;;;18.13;63.66
3668;BME280;24099;47.102;15.440;2023-02-18T11:57:59;97275.03;;;18.39;62.80
3668;BME280;24099;47.102;15.440;2023-02-18T12:00:36;97275.97;;;18.33;63.56
3668;BME280;24099;47.102;15.440;2023-02-18T12:03:14;97278.13;;;18.13;64.24
3668;BME280;24099;47.102;15.440;2023-02-18T12:05:45;97271.13;;;18.42;64.65
3668;BME280;24099;47.102;15.440;2023-02-18T12:08:19;97263.41;;;18.22;64.11
3668;BME280;24099;47.102;15.440;2023-02-18T12:10:52;97257.19;;;18.16;64.17
3668;BME280;24099;47.102;15.440;2023-02-18T12:13:25;97249.06;;;18.23;64.24
3668;BME280;24099;47.102;15.440;2023-02-18T12:16:02;97251.13;;;17.79;65.50
3668;BME280;24099;47.102;15.440;2023-02-18T12:19:03;97240.13;;;17.58;66.22
3668;BME280;24099;47.102;15.440;2023-02-18T12:21:41;97217.00;;;18.30;64.64
3668;BME280;24099;47.102;15.440;2023-02-18T12:24:27;97214.66;;;17.80;63.50
3668;BME280;24099;47.102;15.440;2023-02-18T12:27:06;97209.94;;;18.47;64.88
3668;BME280;24099;47.102;15.440;2023-02-18T12:32:40;97203.44;;;18.31;64.65
3668;BME280;24099;47.102;15.440;2023-02-18T12:35:22;97187.34;;;18.49;63.95
3668;BME280;24099;47.102;15.440;2023-02-18T12:38:07;97199.25;;;17.52;65.55
3668;BME280;24099;47.102;15.440;2023-02-18T12:40:47;97188.28;;;17.78;66.11
3668;BME280;24099;47.102;15.440;2023-02-18T12:43:31;97182.25;;;17.83;66.05
3668;BME280;24099;47.102;15.440;2023-02-18T12:46:20;97187.81;;;17.81;66.69
3668;BME280;24099;47.102;15.440;2023-02-18T12:48:59;97179.59;;;18.59;66.09
3668;BME280;24099;47.102;15.440;2023-02-18T12:51:37;97175.75;;;18.79;64.98
3668;BME280;24099;47.102;15.440;2023-02-18T12:54:31;97170.78;;;18.82;64.60
3668;BME280;24099;47.102;15.440;2023-02-18T12:57:25;97168.31;;;18.11;65.65
3668;BME280;24099;47.102;15.440;2023-02-18T13:03:34;97161.97;;;17.70;65.14
3668;BME280;24099;47.102;15.440;2023-02-18T13:06:18;97152.09;;;18.12;65.29
3668;BME280;24099;47.102;15.440;2023-02-18T13:09:00;97150.94;;;18.43;64.54
3668;BME280;24099;47.102;15.440;2023-02-18T13:11:40;97151.19;;;18.53;63.04
3668;BME280;24099;47.102;15.440;2023-02-18T13:14:19;97149.31;;;18.19;63.66
3668;BME280;24099;47.102;15.440;2023-02-18T13:16:55;97145.03;;;18.41;64.08
3668;BME280;24099;47.102;15.440;2023-02-18T13:19:26;97144.47;;;18.51;64.20
3668;BME280;24099;47.102;15.440;2023-02-18T13:21:58;97134.06;;;18.38;63.51
3668;BME280;24099;47.102;15.440;2023-02-18T13:24:32;97129.38;;;18.21;65.46
3668;BME280;24099;47.102;15.440;2023-02-18T13:27:15;97136.16;;;17.71;66.06
3668;BME280;24099;47.102;15.440;2023-02-18T13:29:52;97129.00;;;17.23;67.80
3668;BME280;24099;47.102;15.440;2023-02-18T13:32:28;97119.06;;;17.78;67.18
3668;BME280;24099;47.102;15.440;2023-02-18T13:35:01;97123.59;;;17.60;67.23
3668;BME280;24099;47.102;15.440;2023-02-18T13:37:44;97116.25;;;17.43;66.80